sensor_id;sensor_type;location;lat;lon;timestamp;temperature;humidity
7512;DHT22;9999;48.780;9.146;2024-02-26T00:01:51;7.20;99.90
7512;DHT22;9999;48.780;9.146;2024-02-26T00:04:18;7.20;99.90
7512;DHT22;9999;48.780;9.146;2024-02-26T00:06:45;7.20;99.90
7512;DHT22;9999;48.780;9.146;2024-02-26T00:09:11;7.20;99.90
7512;DHT22;9999;48.780;9.146;2024-02-26T00:11:38;7.30;99.90
7512;DHT22;9999;48.780;9.146;2024-02-26T00:14:05;7.20;99.90
7512;DHT22;9999;48.780;9.146;2024-02-26T00:16:32;7.30;99.90
7512;DHT22;9999;48.780;9.146;2024-02-26T00:19:00;7.30;99.90
7512;DHT22;9999;48.780;9.146;2024-02-26T00:21:28;7.30;99.90
7512;DHT22;9999;48.780;9.146;2024-02-26T00:23:55;7.30;99.90
7512;DHT22;9999;48.780;9.146;2024-02-26T00:26:21;7.40;99.90
7512;DHT22;9999;48.780;9.146;2024-02-26T00:28:48;7.30;99.90
7512;DHT22;9999;48.780;9.146;2024-02-26T00:31:15;7.30;99.90
7512;DHT22;9999;48.780;9.146;2024-02-26T00:33:42;7.10;99.90
7512;DHT22;9999;48.780;9.146;2024-02-26T00:36:10;7.10;99.90
7512;DHT22;9999;48.780;9.146;2024-02-26T00:38:37;7.20;99.90
7512;DHT22;9999;48.780;9.146;2024-02-26T00:41:05;7.20;99.90
7512;DHT22;9999;48.780;9.146;2024-02-26T00:43:31;7.20;99.90
7512;DHT22;9999;48.780;9.146;2024-02-26T00:45:58;7.10;99.90
7512;DHT22;9999;48.780;9.146;2024-02-26T00:48:25;7.20;99.90
7512;DHT22;9999;48.780;9.146;2024-02-26T00:50:53;7.20;99.90
7512;DHT22;9999;48.780;9.146;2024-02-26T00:53:21;7.20;99.90
7512;DHT22;9999;48.780;9.146;2024-02-26T00:55:48;7.30;99.90
7512;DHT22;9999;48.780;9.146;2024-02-26T00:58:14;7.30;99.90
7512;DHT22;9999;48.780;9.146;2024-02-26T01:00:42;7.30;99.90
7512;DHT22;9999;48.780;9.146;2024-02-26T01:03:08;7.20;99.90
7512;DHT22;9999;48.780;9.146;2024-02-26T01:05:36;7.10;99.90
7512;DHT22;9999;48.780;9.146;2024-02-26T01:08:04;7.10;99.90
7512;DHT22;9999;48.780;9.146;2024-02-26T01:10:32;7.10;99.90
7512;DHT22;9999;48.780;9.146;2024-02-26T01:12:59;7.20;99.90
7512;DHT22;9999;48.780;9.146;2024-02-26T01:15:26;7.30;99.90
7512;DHT22;9999;48.780;9.146;2024-02-26T01:17:53;7.20;99.90
7512;DHT22;9999;48.780;9.146;2024-02-26T01:20:20;7.30;99.90
7512;DHT22;9999;48.780;9.146;2024-02-26T01:22:47;7.10;99.90
7512;DHT22;9999;48.780;9.146;2024-02-26T01:25:14;7.10;99.90
7512;DHT22;9999;48.780;9.146;2024-02-26T01:27:42;7.20;99.90
7512;DHT22;9999;48.780;9.146;2024-02-26T01:30:10;7.20;99.90
7512;DHT22;9999;48.780;9.146;2024-02-26T01:32:37;7.00;99.90
7512;DHT22;9999;48.780;9.146;2024-02-26T01:35:04;7.00;99.90
7512;DHT22;9999;48.780;9.146;2024-02-26T01:37:35;7.00;99.90
7512;DHT22;9999;48.780;9.146;2024-02-26T01:40:02;7.00;99.90
7512;DHT22;9999;48.780;9.146;2024-02-26T01:42:30;7.10;99.90
7512;DHT22;9999;48.780;9.146;2024-02-26T01:44:59;7.10;99.90
7512;DHT22;9999;48.780;9.146;2024-02-26T01:47:26;7.00;99.90
7512;DHT22;9999;48.780;9.146;2024-02-26T01:49:54;7.00;99.90
7512;DHT22;9999;48.780;9.146;2024-02-26T01:52:21;7.00;99.90
7512;DHT22;9999;48.780;9.146;2024-02-26T01:54:49;6.90;99.90
7512;DHT22;9999;48.780;9.146;2024-02-26T01:57:16;6.90;99.90
7512;DHT22;9999;48.780;9.146;2024-02-26T01:59:43;6.90;99.90
7512;DHT22;9999;48.780;9.146;2024-02-26T02:02:12;6.90;99.90
7512;DHT22;9999;48.780;9.146;2024-02-26T02:04:39;6.90;99.90
7512;DHT22;9999;48.780;9.146;2024-02-26T02:07:06;7.00;99.90
7512;DHT22;9999;48.780;9.146;2024-02-26T02:09:32;7.00;99.90
7512;DHT22;9999;48.780;9.146;2024-02-26T02:12:00;7.10;99.90
7512;DHT22;9999;48.780;9.146;2024-02-26T02:14:27;7.00;99.90
7512;DHT22;9999;48.780;9.146;2024-02-26T02:16:54;7.10;99.90
7512;DHT22;9999;48.780;9.146;2024-02-26T02:19:22;7.00;99.90
7512;DHT22;9999;48.780;9.146;2024-02-26T02:21:50;7.00;99.90
7512;DHT22;9999;48.780;9.146;2024-02-26T02:24:17;7.00;99.90
7512;DHT22;9999;48.780;9.146;2024-02-26T02:26:44;7.00;99.90
7512;DHT22;9999;48.780;9.146;2024-02-26T02:29:11;7.10;99.90
7512;DHT22;9999;48.780;9.146;2024-02-26T02:31:39;7.10;99.90
7512;DHT22;9999;48.780;9.146;2024-02-26T02:34:06;7.10;99.90
7512;DHT22;9999;48.780;9.146;2024-02-26T02:36:33;7.10;99.90
7512;DHT22;9999;48.780;9.146;2024-02-26T02:39:01;7.10;99.90
7512;DHT22;9999;48.780;9.146;2024-02-26T02:41:28;7.00;99.90
7512;DHT22;9999;48.780;9.146;2024-02-26T02:43:55;7.00;99.90
7512;DHT22;9999;48.780;9.146;2024-02-26T02:46:23;7.00;99.90
7512;DHT22;9999;48.780;9.146;2024-02-26T02:48:49;7.00;99.90
7512;DHT22;9999;48.780;9.146;2024-02-26T02:51:16;6.90;99.90
7512;DHT22;9999;48.780;9.146;2024-02-26T02:53:43;6.90;99.90
7512;DHT22;9999;48.780;9.146;2024-02-26T02:56:11;6.80;99.90
7512;DHT22;9999;48.780;9.146;2024-02-26T02:58:38;6.80;99.90
7512;DHT22;9999;48.780;9.146;2024-02-26T03:01:05;6.80;99.90
7512;DHT22;9999;48.780;9.146;2024-02-26T03:03:32;6.80;99.90
7512;DHT22;9999;48.780;9.146;2024-02-26T03:05:58;6.90;99.90
7512;DHT22;9999;48.780;9.146;2024-02-26T03:08:25;7.10;99.90
7512;DHT22;9999;48.780;9.146;2024-02-26T03:10:52;7.20;99.90
7512;DHT22;9999;48.780;9.146;2024-02-26T03:13:21;7.20;99.90
7512;DHT22;9999;48.780;9.146;2024-02-26T03:15:47;7.30;99.90
7512;DHT22;9999;48.780;9.146;2024-02-26T03:18:14;7.30;99.90
7512;DHT22;9999;48.780;9.146;2024-02-26T03:20:41;7.40;99.90
7512;DHT22;9999;48.780;9.146;2024-02-26T03:23:08;7.40;99.90
7512;DHT22;9999;48.780;9.146;2024-02-26T03:25:38;7.40;99.90
7512;DHT22;9999;48.780;9.146;2024-02-26T03:28:05;7.40;99.90
7512;DHT22;9999;48.780;9.146;2024-02-26T03:30:33;7.40;99.90
7512;DHT22;9999;48.780;9.146;2024-02-26T03:33:01;7.40;99.90
7512;DHT22;9999;48.780;9.146;2024-02-26T03:35:28;7.40;99.90
7512;DHT22;9999;48.780;9.146;2024-02-26T03:37:54;7.40;99.90
7512;DHT22;9999;48.780;9.146;2024-02-26T03:40:21;7.40;99.90
7512;DHT22;9999;48.780;9.146;2024-02-26T03:42:48;7.40;99.90
7512;DHT22;9999;48.780;9.146;2024-02-26T03:45:15;7.40;99.90
7512;DHT22;9999;48.780;9.146;2024-02-26T03:47:43;7.50;99.90
7512;DHT22;9999;48.780;9.146;2024-02-26T03:50:10;7.50;99.90
7512;DHT22;9999;48.780;9.146;2024-02-26T03:52:37;7.40;99.90
7512;DHT22;9999;48.780;9.146;2024-02-26T03:55:04;7.40;99.90
7512;DHT22;9999;48.780;9.146;2024-02-26T03:57:31;7.40;99.90
7512;DHT22;9999;48.780;9.146;2024-02-26T03:59:58;7.40;99.90
7512;DHT22;9999;48.780;9.146;2024-02-26T04:02:25;7.40;99.90
7512;DHT22;9999;48.780;9.146;2024-02-26T04:04:53;7.40;99.90
7512;DHT22;9999;48.780;9.146;2024-02-26T04:07:21;7.40;99.90
7512;DHT22;9999;48.780;9.146;2024-02-26T04:09:47;7.30;99.90
7512;DHT22;9999;48.780;9.146;2024-02-26T04:12:14;7.20;99.90
7512;DHT22;9999;48.780;9.146;2024-02-26T04:14:41;7.10;99.90
7512;DHT22;9999;48.780;9.146;2024-02-26T04:17:08;7.00;99.90
7512;DHT22;9999;48.780;9.146;2024-02-26T04:19:34;6.90;99.90
7512;DHT22;9999;48.780;9.146;2024-02-26T04:22:03;7.00;99.90
7512;DHT22;9999;48.780;9.146;2024-02-26T04:24:31;7.10;99.90
7512;DHT22;9999;48.780;9.146;2024-02-26T04:26:57;7.10;99.90
7512;DHT22;9999;48.780;9.146;2024-02-26T04:29:24;6.90;99.90
7512;DHT22;9999;48.780;9.146;2024-02-26T04:31:51;7.00;99.90
7512;DHT22;9999;48.780;9.146;2024-02-26T04:34:18;7.00;99.90
7512;DHT22;9999;48.780;9.146;2024-02-26T04:36:44;7.00;99.90
7512;DHT22;9999;48.780;9.146;2024-02-26T04:39:14;6.90;99.90
7512;DHT22;9999;48.780;9.146;2024-02-26T04:41:41;6.80;99.90
7512;DHT22;9999;48.780;9.146;2024-02-26T04:44:08;6.80;99.90
7512;DHT22;9999;48.780;9.146;2024-02-26T04:46:35;6.80;99.90
7512;DHT22;9999;48.780;9.146;2024-02-26T04:49:02;7.00;99.90
7512;DHT22;9999;48.780;9.146;2024-02-26T04:51:29;6.90;99.90
7512;DHT22;9999;48.780;9.146;2024-02-26T04:53:55;6.90;99.90
7512;DHT22;9999;48.780;9.146;2024-02-26T04:56:25;7.00;99.90
7512;DHT22;9999;48.780;9.146;2024-02-26T04:58:52;7.00;99.90
7512;DHT22;9999;48.780;9.146;2024-02-26T05:01:18;6.80;99.90
7512;DHT22;9999;48.780;9.146;2024-02-26T05:03:45;6.80;99.90
7512;DHT22;9999;48.780;9.146;2024-02-26T05:06:12;6.80;99.90
7512;DHT22;9999;48.780;9.146;2024-02-26T05:08:39;6.90;99.90
7512;DHT22;9999;48.780;9.146;2024-02-26T05:11:05;6.80;99.90
7512;DHT22;9999;48.780;9.146;2024-02-26T05:13:33;6.70;99.90
7512;DHT22;9999;48.780;9.146;2024-02-26T05:16:00;6.70;99.90
7512;DHT22;9999;48.780;9.146;2024-02-26T05:18:28;6.70;99.90
7512;DHT22;9999;48.780;9.146;2024-02-26T05:20:54;6.70;99.90
7512;DHT22;9999;48.780;9.146;2024-02-26T05:23:21;6.70;99.90
7512;DHT22;9999;48.780;9.146;2024-02-26T05:25:48;6.70;99.90
7512;DHT22;9999;48.780;9.146;2024-02-26T05:28:15;6.70;99.90
7512;DHT22;9999;48.780;9.146;2024-02-26T05:30:44;6.70;99.90
7512;DHT22;9999;48.780;9.146;2024-02-26T05:33:10;6.70;99.90
7512;DHT22;9999;48.780;9.146;2024-02-26T05:35:37;6.70;99.90
7512;DHT22;9999;48.780;9.146;2024-02-26T05:38:04;6.70;99.90
7512;DHT22;9999;48.780;9.146;2024-02-26T05:40:31;6.60;99.90
7512;DHT22;9999;48.780;9.146;2024-02-26T05:43:00;6.60;99.90
7512;DHT22;9999;48.780;9.146;2024-02-26T05:45:27;6.70;99.90
7512;DHT22;9999;48.780;9.146;2024-02-26T05:47:55;6.70;99.90
7512;DHT22;9999;48.780;9.146;2024-02-26T05:50:22;6.70;99.90
7512;DHT22;9999;48.780;9.146;2024-02-26T05:52:49;6.60;99.90
7512;DHT22;9999;48.780;9.146;2024-02-26T05:55:16;6.70;99.90
7512;DHT22;9999;48.780;9.146;2024-02-26T05:57:42;6.70;99.90
7512;DHT22;9999;48.780;9.146;2024-02-26T06:00:10;6.60;99.90
7512;DHT22;9999;48.780;9.146;2024-02-26T06:02:38;6.60;99.90
7512;DHT22;9999;48.780;9.146;2024-02-26T06:05:07;6.50;99.90
7512;DHT22;9999;48.780;9.146;2024-02-26T06:07:34;6.50;99.90
7512;DHT22;9999;48.780;9.146;2024-02-26T06:10:01;6.50;99.90
7512;DHT22;9999;48.780;9.146;2024-02-26T06:12:30;6.50;99.90
7512;DHT22;9999;48.780;9.146;2024-02-26T06:14:58;6.60;99.90
7512;DHT22;9999;48.780;9.146;2024-02-26T06:17:26;6.60;99.90
7512;DHT22;9999;48.780;9.146;2024-02-26T06:19:54;6.50;99.90
7512;DHT22;9999;48.780;9.146;2024-02-26T06:22:22;6.50;99.90
7512;DHT22;9999;48.780;9.146;2024-02-26T06:24:48;6.40;99.90
7512;DHT22;9999;48.780;9.146;2024-02-26T06:27:15;6.40;99.90
7512;DHT22;9999;48.780;9.146;2024-02-26T06:29:42;6.40;99.90
7512;DHT22;9999;48.780;9.146;2024-02-26T06:32:09;6.40;99.90
7512;DHT22;9999;48.780;9.146;2024-02-26T06:34:36;6.30;99.90
7512;DHT22;9999;48.780;9.146;2024-02-26T06:37:04;6.30;99.90
7512;DHT22;9999;48.780;9.146;2024-02-26T06:39:32;6.40;99.90
7512;DHT22;9999;48.780;9.146;2024-02-26T06:41:59;6.40;99.90
7512;DHT22;9999;48.780;9.146;2024-02-26T06:44:27;6.50;99.90
7512;DHT22;9999;48.780;9.146;2024-02-26T06:46:57;6.60;99.90
7512;DHT22;9999;48.780;9.146;2024-02-26T06:49:24;6.70;99.90
7512;DHT22;9999;48.780;9.146;2024-02-26T06:51:51;6.70;99.90
7512;DHT22;9999;48.780;9.146;2024-02-26T06:54:18;6.70;99.90
7512;DHT22;9999;48.780;9.146;2024-02-26T06:56:46;6.80;99.90
7512;DHT22;9999;48.780;9.146;2024-02-26T06:59:13;6.80;99.90
7512;DHT22;9999;48.780;9.146;2024-02-26T07:01:40;6.80;99.90
7512;DHT22;9999;48.780;9.146;2024-02-26T07:04:07;6.90;99.90
7512;DHT22;9999;48.780;9.146;2024-02-26T07:06:36;6.90;99.90
7512;DHT22;9999;48.780;9.146;2024-02-26T07:09:03;7.00;99.90
7512;DHT22;9999;48.780;9.146;2024-02-26T07:11:30;7.00;99.90
7512;DHT22;9999;48.780;9.146;2024-02-26T07:13:58;7.00;99.90
7512;DHT22;9999;48.780;9.146;2024-02-26T07:16:26;6.90;99.90
7512;DHT22;9999;48.780;9.146;2024-02-26T07:18:53;6.90;99.90
7512;DHT22;9999;48.780;9.146;2024-02-26T07:21:20;6.90;99.90
7512;DHT22;9999;48.780;9.146;2024-02-26T07:23:46;7.00;99.90
7512;DHT22;9999;48.780;9.146;2024-02-26T07:26:13;7.00;99.90
7512;DHT22;9999;48.780;9.146;2024-02-26T07:28:40;7.10;99.90
7512;DHT22;9999;48.780;9.146;2024-02-26T07:31:08;7.10;99.90
7512;DHT22;9999;48.780;9.146;2024-02-26T07:33:35;7.10;99.90
7512;DHT22;9999;48.780;9.146;2024-02-26T07:36:03;7.10;99.90
7512;DHT22;9999;48.780;9.146;2024-02-26T07:38:30;7.00;99.90
7512;DHT22;9999;48.780;9.146;2024-02-26T07:40:58;7.10;99.90
7512;DHT22;9999;48.780;9.146;2024-02-26T07:43:25;7.10;99.90
7512;DHT22;9999;48.780;9.146;2024-02-26T07:45:51;7.10;99.90
7512;DHT22;9999;48.780;9.146;2024-02-26T07:48:19;7.20;99.90
7512;DHT22;9999;48.780;9.146;2024-02-26T07:50:46;7.20;99.90
7512;DHT22;9999;48.780;9.146;2024-02-26T07:53:13;7.20;99.90
7512;DHT22;9999;48.780;9.146;2024-02-26T07:55:40;7.30;99.90
7512;DHT22;9999;48.780;9.146;2024-02-26T07:58:07;7.30;99.90
7512;DHT22;9999;48.780;9.146;2024-02-26T08:00:33;7.40;99.90
7512;DHT22;9999;48.780;9.146;2024-02-26T08:03:00;7.40;99.90
7512;DHT22;9999;48.780;9.146;2024-02-26T08:05:28;7.40;99.90
7512;DHT22;9999;48.780;9.146;2024-02-26T08:07:55;7.40;99.90
7512;DHT22;9999;48.780;9.146;2024-02-26T08:10:22;7.40;99.90
7512;DHT22;9999;48.780;9.146;2024-02-26T08:12:49;7.40;99.90
7512;DHT22;9999;48.780;9.146;2024-02-26T08:15:15;7.50;99.90
7512;DHT22;9999;48.780;9.146;2024-02-26T08:17:44;7.60;99.90
7512;DHT22;9999;48.780;9.146;2024-02-26T08:20:13;7.60;99.90
7512;DHT22;9999;48.780;9.146;2024-02-26T08:22:41;7.70;99.90
7512;DHT22;9999;48.780;9.146;2024-02-26T08:25:09;7.80;99.90
7512;DHT22;9999;48.780;9.146;2024-02-26T08:27:36;7.80;99.90
7512;DHT22;9999;48.780;9.146;2024-02-26T08:30:03;7.80;99.90
7512;DHT22;9999;48.780;9.146;2024-02-26T08:32:30;7.80;99.90
7512;DHT22;9999;48.780;9.146;2024-02-26T08:34:57;7.80;99.90
7512;DHT22;9999;48.780;9.146;2024-02-26T08:37:24;7.80;99.90
7512;DHT22;9999;48.780;9.146;2024-02-26T08:39:52;7.90;99.90
7512;DHT22;9999;48.780;9.146;2024-02-26T08:42:19;8.00;99.90
7512;DHT22;9999;48.780;9.146;2024-02-26T08:44:46;8.00;99.90
7512;DHT22;9999;48.780;9.146;2024-02-26T08:47:13;8.10;99.90
7512;DHT22;9999;48.780;9.146;2024-02-26T08:49:43;8.00;99.90
7512;DHT22;9999;48.780;9.146;2024-02-26T08:52:10;8.10;99.90
7512;DHT22;9999;48.780;9.146;2024-02-26T08:54:37;8.20;99.90
7512;DHT22;9999;48.780;9.146;2024-02-26T08:57:05;8.20;99.90
7512;DHT22;9999;48.780;9.146;2024-02-26T08:59:32;8.20;99.90
7512;DHT22;9999;48.780;9.146;2024-02-26T09:01:59;8.30;99.90
7512;DHT22;9999;48.780;9.146;2024-02-26T09:04:26;8.30;99.90
7512;DHT22;9999;48.780;9.146;2024-02-26T09:06:53;8.30;99.90
7512;DHT22;9999;48.780;9.146;2024-02-26T09:09:20;8.30;99.90
7512;DHT22;9999;48.780;9.146;2024-02-26T09:11:47;8.30;99.90
7512;DHT22;9999;48.780;9.146;2024-02-26T09:14:18;8.30;99.90
7512;DHT22;9999;48.780;9.146;2024-02-26T09:16:45;8.30;99.90
7512;DHT22;9999;48.780;9.146;2024-02-26T09:19:13;8.40;99.90
7512;DHT22;9999;48.780;9.146;2024-02-26T09:21:42;8.50;99.90
7512;DHT22;9999;48.780;9.146;2024-02-26T09:24:09;8.60;99.90
7512;DHT22;9999;48.780;9.146;2024-02-26T09:26:36;8.60;99.90
7512;DHT22;9999;48.780;9.146;2024-02-26T09:29:03;8.70;99.90
7512;DHT22;9999;48.780;9.146;2024-02-26T09:31:32;8.70;99.90
7512;DHT22;9999;48.780;9.146;2024-02-26T09:33:59;8.80;99.90
7512;DHT22;9999;48.780;9.146;2024-02-26T09:36:26;8.90;99.90
7512;DHT22;9999;48.780;9.146;2024-02-26T09:38:53;8.90;99.90
7512;DHT22;9999;48.780;9.146;2024-02-26T09:41:19;8.90;99.90
7512;DHT22;9999;48.780;9.146;2024-02-26T09:43:48;8.90;99.90
7512;DHT22;9999;48.780;9.146;2024-02-26T09:46:18;8.90;99.90
7512;DHT22;9999;48.780;9.146;2024-02-26T09:48:47;8.90;99.90
7512;DHT22;9999;48.780;9.146;2024-02-26T09:51:15;8.90;99.90
7512;DHT22;9999;48.780;9.146;2024-02-26T09:53:43;8.90;99.90
7512;DHT22;9999;48.780;9.146;2024-02-26T09:56:11;9.00;99.90
7512;DHT22;9999;48.780;9.146;2024-02-26T09:58:39;9.00;99.90
7512;DHT22;9999;48.780;9.146;2024-02-26T10:01:13;9.00;99.90
7512;DHT22;9999;48.780;9.146;2024-02-26T10:03:41;9.10;99.90
7512;DHT22;9999;48.780;9.146;2024-02-26T10:06:11;9.30;99.90
7512;DHT22;9999;48.780;9.146;2024-02-26T10:08:38;9.60;99.90
7512;DHT22;9999;48.780;9.146;2024-02-26T10:11:07;9.80;99.90
7512;DHT22;9999;48.780;9.146;2024-02-26T10:13:34;9.90;99.90
7512;DHT22;9999;48.780;9.146;2024-02-26T10:16:01;10.00;99.90
7512;DHT22;9999;48.780;9.146;2024-02-26T10:18:47;10.30;99.90
7512;DHT22;9999;48.780;9.146;2024-02-26T10:21:16;10.40;99.90
7512;DHT22;9999;48.780;9.146;2024-02-26T10:23:43;10.60;99.90
7512;DHT22;9999;48.780;9.146;2024-02-26T10:26:11;10.50;99.90
7512;DHT22;9999;48.780;9.146;2024-02-26T10:28:39;10.50;99.90
7512;DHT22;9999;48.780;9.146;2024-02-26T10:31:06;10.50;99.90
7512;DHT22;9999;48.780;9.146;2024-02-26T10:33:34;10.60;99.90
7512;DHT22;9999;48.780;9.146;2024-02-26T10:36:02;10.70;99.90
7512;DHT22;9999;48.780;9.146;2024-02-26T10:38:32;10.70;99.90
7512;DHT22;9999;48.780;9.146;2024-02-26T10:40:58;11.00;99.90
7512;DHT22;9999;48.780;9.146;2024-02-26T10:43:25;11.20;99.90
7512;DHT22;9999;48.780;9.146;2024-02-26T10:45:54;11.20;99.90
7512;DHT22;9999;48.780;9.146;2024-02-26T10:48:21;11.30;99.90
7512;DHT22;9999;48.780;9.146;2024-02-26T10:50:48;11.30;99.90
7512;DHT22;9999;48.780;9.146;2024-02-26T10:53:17;11.20;99.90
7512;DHT22;9999;48.780;9.146;2024-02-26T10:55:54;11.30;99.90
7512;DHT22;9999;48.780;9.146;2024-02-26T10:58:22;11.20;99.90
7512;DHT22;9999;48.780;9.146;2024-02-26T11:00:50;11.10;99.90
7512;DHT22;9999;48.780;9.146;2024-02-26T11:03:18;11.20;99.90
7512;DHT22;9999;48.780;9.146;2024-02-26T11:05:47;11.30;99.90
7512;DHT22;9999;48.780;9.146;2024-02-26T11:08:15;11.30;99.90
7512;DHT22;9999;48.780;9.146;2024-02-26T11:10:42;11.50;99.90
7512;DHT22;9999;48.780;9.146;2024-02-26T11:13:12;11.60;99.90
7512;DHT22;9999;48.780;9.146;2024-02-26T11:15:40;11.90;99.90
7512;DHT22;9999;48.780;9.146;2024-02-26T11:18:13;12.30;99.90
7512;DHT22;9999;48.780;9.146;2024-02-26T11:20:40;12.40;99.90
7512;DHT22;9999;48.780;9.146;2024-02-26T11:23:08;12.50;99.90
7512;DHT22;9999;48.780;9.146;2024-02-26T11:25:35;12.30;99.90
7512;DHT22;9999;48.780;9.146;2024-02-26T11:28:05;12.30;99.90
7512;DHT22;9999;48.780;9.146;2024-02-26T11:30:38;12.20;99.90
7512;DHT22;9999;48.780;9.146;2024-02-26T11:33:07;12.10;99.90
7512;DHT22;9999;48.780;9.146;2024-02-26T11:35:36;12.20;99.90
7512;DHT22;9999;48.780;9.146;2024-02-26T11:38:03;12.20;99.90
7512;DHT22;9999;48.780;9.146;2024-02-26T11:40:32;12.20;99.90
7512;DHT22;9999;48.780;9.146;2024-02-26T11:42:59;12.20;99.90
7512;DHT22;9999;48.780;9.146;2024-02-26T11:45:50;12.20;99.90
7512;DHT22;9999;48.780;9.146;2024-02-26T11:48:22;12.10;99.90
7512;DHT22;9999;48.780;9.146;2024-02-26T11:50:49;11.90;99.90
7512;DHT22;9999;48.780;9.146;2024-02-26T11:53:24;12.00;99.90
7512;DHT22;9999;48.780;9.146;2024-02-26T11:56:23;12.00;99.90
7512;DHT22;9999;48.780;9.146;2024-02-26T11:58:56;12.00;99.90
7512;DHT22;9999;48.780;9.146;2024-02-26T12:01:44;12.00;99.90
7512;DHT22;9999;48.780;9.146;2024-02-26T12:04:13;12.00;99.90
7512;DHT22;9999;48.780;9.146;2024-02-26T12:06:43;11.90;99.90
7512;DHT22;9999;48.780;9.146;2024-02-26T12:09:11;12.00;99.90
7512;DHT22;9999;48.780;9.146;2024-02-26T12:11:39;12.10;99.90
7512;DHT22;9999;48.780;9.146;2024-02-26T12:14:07;12.10;99.90
7512;DHT22;9999;48.780;9.146;2024-02-26T12:16:35;12.10;99.90
7512;DHT22;9999;48.780;9.146;2024-02-26T12:19:06;12.20;99.90
7512;DHT22;9999;48.780;9.146;2024-02-26T12:21:34;12.10;99.90
7512;DHT22;9999;48.780;9.146;2024-02-26T12:24:10;12.10;99.90
7512;DHT22;9999;48.780;9.146;2024-02-26T12:26:38;12.00;99.90
7512;DHT22;9999;48.780;9.146;2024-02-26T12:29:05;11.90;99.90
7512;DHT22;9999;48.780;9.146;2024-02-26T12:31:33;12.00;99.90
7512;DHT22;9999;48.780;9.146;2024-02-26T12:34:00;12.00;99.90
7512;DHT22;9999;48.780;9.146;2024-02-26T12:36:28;12.00;99.90
7512;DHT22;9999;48.780;9.146;2024-02-26T12:38:56;12.00;99.90
7512;DHT22;9999;48.780;9.146;2024-02-26T12:41:22;12.00;99.90
7512;DHT22;9999;48.780;9.146;2024-02-26T12:43:49;11.90;99.90
7512;DHT22;9999;48.780;9.146;2024-02-26T12:46:15;12.00;99.90
7512;DHT22;9999;48.780;9.146;2024-02-26T12:48:43;12.10;99.90
7512;DHT22;9999;48.780;9.146;2024-02-26T12:51:10;12.30;99.90
7512;DHT22;9999;48.780;9.146;2024-02-26T12:53:40;12.50;99.90
7512;DHT22;9999;48.780;9.146;2024-02-26T12:56:08;12.60;99.90
7512;DHT22;9999;48.780;9.146;2024-02-26T12:58:36;12.60;99.90
7512;DHT22;9999;48.780;9.146;2024-02-26T13:01:04;12.60;99.90
7512;DHT22;9999;48.780;9.146;2024-02-26T13:03:31;12.60;99.90
7512;DHT22;9999;48.780;9.146;2024-02-26T13:05:59;12.60;99.90
7512;DHT22;9999;48.780;9.146;2024-02-26T13:08:26;12.60;99.90
7512;DHT22;9999;48.780;9.146;2024-02-26T13:10:54;12.70;99.90
7512;DHT22;9999;48.780;9.146;2024-02-26T13:13:22;12.70;99.90
7512;DHT22;9999;48.780;9.146;2024-02-26T13:15:49;12.80;99.90
7512;DHT22;9999;48.780;9.146;2024-02-26T13:18:16;12.80;99.90
7512;DHT22;9999;48.780;9.146;2024-02-26T13:20:43;12.90;99.90
7512;DHT22;9999;48.780;9.146;2024-02-26T13:23:11;13.00;99.90
7512;DHT22;9999;48.780;9.146;2024-02-26T13:25:38;13.10;99.90
7512;DHT22;9999;48.780;9.146;2024-02-26T13:28:09;13.10;99.90
7512;DHT22;9999;48.780;9.146;2024-02-26T13:30:39;13.10;99.90
7512;DHT22;9999;48.780;9.146;2024-02-26T13:33:10;13.20;99.90
7512;DHT22;9999;48.780;9.146;2024-02-26T13:35:37;13.30;99.90
7512;DHT22;9999;48.780;9.146;2024-02-26T13:38:05;13.30;99.90
7512;DHT22;9999;48.780;9.146;2024-02-26T13:40:32;13.30;99.90
7512;DHT22;9999;48.780;9.146;2024-02-26T13:43:00;13.30;99.90
7512;DHT22;9999;48.780;9.146;2024-02-26T13:45:28;13.30;99.90
7512;DHT22;9999;48.780;9.146;2024-02-26T13:48:05;13.30;99.90
7512;DHT22;9999;48.780;9.146;2024-02-26T13:50:32;13.30;99.90
7512;DHT22;9999;48.780;9.146;2024-02-26T13:52:59;13.30;99.90
7512;DHT22;9999;48.780;9.146;2024-02-26T13:55:26;13.40;99.90
7512;DHT22;9999;48.780;9.146;2024-02-26T13:57:54;13.40;99.90
7512;DHT22;9999;48.780;9.146;2024-02-26T14:00:21;13.40;99.90
7512;DHT22;9999;48.780;9.146;2024-02-26T14:02:49;13.40;99.90
7512;DHT22;9999;48.780;9.146;2024-02-26T14:05:15;13.30;99.90
7512;DHT22;9999;48.780;9.146;2024-02-26T14:07:42;13.30;99.90
7512;DHT22;9999;48.780;9.146;2024-02-26T14:10:11;13.30;99.90
7512;DHT22;9999;48.780;9.146;2024-02-26T14:12:38;13.40;99.90
7512;DHT22;9999;48.780;9.146;2024-02-26T14:15:07;13.40;99.90
7512;DHT22;9999;48.780;9.146;2024-02-26T14:17:34;13.30;99.90
7512;DHT22;9999;48.780;9.146;2024-02-26T14:20:02;13.30;99.90
7512;DHT22;9999;48.780;9.146;2024-02-26T14:22:29;13.50;99.90
7512;DHT22;9999;48.780;9.146;2024-02-26T14:24:57;13.50;99.90
7512;DHT22;9999;48.780;9.146;2024-02-26T14:27:24;13.40;99.90
7512;DHT22;9999;48.780;9.146;2024-02-26T14:29:51;13.50;99.90
7512;DHT22;9999;48.780;9.146;2024-02-26T14:32:18;13.50;99.90
7512;DHT22;9999;48.780;9.146;2024-02-26T14:34:45;13.50;99.90
7512;DHT22;9999;48.780;9.146;2024-02-26T14:37:13;13.50;99.90
7512;DHT22;9999;48.780;9.146;2024-02-26T14:39:41;13.50;99.90
7512;DHT22;9999;48.780;9.146;2024-02-26T14:42:07;13.60;99.90
7512;DHT22;9999;48.780;9.146;2024-02-26T14:44:34;13.60;99.90
7512;DHT22;9999;48.780;9.146;2024-02-26T14:47:01;13.50;99.90
7512;DHT22;9999;48.780;9.146;2024-02-26T14:49:28;13.50;99.90
7512;DHT22;9999;48.780;9.146;2024-02-26T14:51:56;13.40;99.90
7512;DHT22;9999;48.780;9.146;2024-02-26T14:54:24;13.30;99.90
7512;DHT22;9999;48.780;9.146;2024-02-26T14:56:51;13.30;99.90
7512;DHT22;9999;48.780;9.146;2024-02-26T14:59:18;13.30;99.90
7512;DHT22;9999;48.780;9.146;2024-02-26T15:01:44;13.30;99.90
7512;DHT22;9999;48.780;9.146;2024-02-26T15:04:11;13.20;99.90
7512;DHT22;9999;48.780;9.146;2024-02-26T15:06:38;13.20;99.90
7512;DHT22;9999;48.780;9.146;2024-02-26T15:09:05;13.00;99.90
7512;DHT22;9999;48.780;9.146;2024-02-26T15:11:33;12.90;99.90
7512;DHT22;9999;48.780;9.146;2024-02-26T15:13:59;12.80;99.90
7512;DHT22;9999;48.780;9.146;2024-02-26T15:16:27;12.80;99.90
7512;DHT22;9999;48.780;9.146;2024-02-26T15:18:54;12.80;99.90
7512;DHT22;9999;48.780;9.146;2024-02-26T15:21:20;12.90;99.90
7512;DHT22;9999;48.780;9.146;2024-02-26T15:23:47;12.90;99.90
7512;DHT22;9999;48.780;9.146;2024-02-26T15:26:17;12.90;99.90
7512;DHT22;9999;48.780;9.146;2024-02-26T15:28:46;12.80;99.90
7512;DHT22;9999;48.780;9.146;2024-02-26T15:31:13;12.80;99.90
7512;DHT22;9999;48.780;9.146;2024-02-26T15:33:41;12.70;99.90
7512;DHT22;9999;48.780;9.146;2024-02-26T15:36:09;12.70;99.90
7512;DHT22;9999;48.780;9.146;2024-02-26T15:38:36;12.50;99.90
7512;DHT22;9999;48.780;9.146;2024-02-26T15:41:10;12.40;99.90
7512;DHT22;9999;48.780;9.146;2024-02-26T15:43:37;12.30;99.90
7512;DHT22;9999;48.780;9.146;2024-02-26T15:46:06;12.30;99.90
7512;DHT22;9999;48.780;9.146;2024-02-26T15:48:33;12.30;99.90
7512;DHT22;9999;48.780;9.146;2024-02-26T15:51:00;12.20;99.90
7512;DHT22;9999;48.780;9.146;2024-02-26T15:53:27;12.20;99.90
7512;DHT22;9999;48.780;9.146;2024-02-26T15:55:53;12.10;99.90
7512;DHT22;9999;48.780;9.146;2024-02-26T15:58:20;12.10;99.90
7512;DHT22;9999;48.780;9.146;2024-02-26T16:00:49;12.10;99.90
7512;DHT22;9999;48.780;9.146;2024-02-26T16:03:17;12.00;99.90
7512;DHT22;9999;48.780;9.146;2024-02-26T16:05:44;12.00;99.90
7512;DHT22;9999;48.780;9.146;2024-02-26T16:08:16;11.90;99.90
7512;DHT22;9999;48.780;9.146;2024-02-26T16:10:45;11.90;99.90
7512;DHT22;9999;48.780;9.146;2024-02-26T16:13:12;11.90;99.90
7512;DHT22;9999;48.780;9.146;2024-02-26T16:15:43;11.80;99.90